sensor_id;sensor_type;location;lat;lon;timestamp;P1;durP1;ratioP1;P2;durP2;ratioP2
44764;SDS011;30484;52.382;5.260;2024-02-21T00:00:59;38.55;;;4.63;;
44764;SDS011;30484;52.382;5.260;2024-02-21T00:03:27;29.48;;;3.92;;
44764;SDS011;30484;52.382;5.260;2024-02-21T00:05:56;30.58;;;4.20;;
44764;SDS011;30484;52.382;5.260;2024-02-21T00:08:25;32.90;;;5.20;;
44764;SDS011;30484;52.382;5.260;2024-02-21T00:10:54;34.83;;;4.20;;
44764;SDS011;30484;52.382;5.260;2024-02-21T00:13:23;32.60;;;3.97;;
44764;SDS011;30484;52.382;5.260;2024-02-21T00:15:51;33.58;;;4.30;;
44764;SDS011;30484;52.382;5.260;2024-02-21T00:18:20;32.40;;;4.38;;
44764;SDS011;30484;52.382;5.260;2024-02-21T00:20:52;36.78;;;5.07;;
44764;SDS011;30484;52.382;5.260;2024-02-21T00:23:21;30.48;;;4.38;;
44764;SDS011;30484;52.382;5.260;2024-02-21T00:25:50;37.40;;;4.35;;
44764;SDS011;30484;52.382;5.260;2024-02-21T00:28:19;29.80;;;4.60;;
44764;SDS011;30484;52.382;5.260;2024-02-21T00:30:48;29.88;;;4.28;;
44764;SDS011;30484;52.382;5.260;2024-02-21T00:33:19;40.45;;;5.15;;
44764;SDS011;30484;52.382;5.260;2024-02-21T00:35:48;35.95;;;5.38;;
44764;SDS011;30484;52.382;5.260;2024-02-21T00:38:16;34.25;;;4.35;;
44764;SDS011;30484;52.382;5.260;2024-02-21T00:40:45;37.45;;;4.40;;
44764;SDS011;30484;52.382;5.260;2024-02-21T00:43:15;28.20;;;4.30;;
44764;SDS011;30484;52.382;5.260;2024-02-21T00:45:43;33.05;;;4.65;;
44764;SDS011;30484;52.382;5.260;2024-02-21T00:48:12;38.15;;;4.57;;
44764;SDS011;30484;52.382;5.260;2024-02-21T00:50:41;36.38;;;4.68;;
44764;SDS011;30484;52.382;5.260;2024-02-21T00:53:09;37.60;;;4.35;;
44764;SDS011;30484;52.382;5.260;2024-02-21T00:55:38;35.65;;;4.90;;
44764;SDS011;30484;52.382;5.260;2024-02-21T00:58:07;41.85;;;4.72;;
44764;SDS011;30484;52.382;5.260;2024-02-21T01:00:37;30.88;;;4.18;;
44764;SDS011;30484;52.382;5.260;2024-02-21T01:03:06;41.90;;;5.63;;
44764;SDS011;30484;52.382;5.260;2024-02-21T01:05:34;36.10;;;4.57;;
44764;SDS011;30484;52.382;5.260;2024-02-21T01:08:03;31.92;;;4.82;;
44764;SDS011;30484;52.382;5.260;2024-02-21T01:10:32;34.60;;;4.88;;
44764;SDS011;30484;52.382;5.260;2024-02-21T01:13:01;36.20;;;5.28;;
44764;SDS011;30484;52.382;5.260;2024-02-21T01:15:30;34.22;;;4.93;;
44764;SDS011;30484;52.382;5.260;2024-02-21T01:18:00;42.33;;;4.70;;
44764;SDS011;30484;52.382;5.260;2024-02-21T01:20:29;31.08;;;4.32;;
44764;SDS011;30484;52.382;5.260;2024-02-21T01:22:57;33.78;;;5.28;;
44764;SDS011;30484;52.382;5.260;2024-02-21T01:25:26;31.42;;;4.85;;
44764;SDS011;30484;52.382;5.260;2024-02-21T01:27:54;29.77;;;4.28;;
44764;SDS011;30484;52.382;5.260;2024-02-21T01:30:23;30.45;;;4.70;;
44764;SDS011;30484;52.382;5.260;2024-02-21T01:32:51;31.08;;;4.45;;
44764;SDS011;30484;52.382;5.260;2024-02-21T01:35:21;36.97;;;4.63;;
44764;SDS011;30484;52.382;5.260;2024-02-21T01:37:50;37.58;;;4.32;;
44764;SDS011;30484;52.382;5.260;2024-02-21T01:40:19;35.20;;;4.82;;
44764;SDS011;30484;52.382;5.260;2024-02-21T01:42:47;33.20;;;5.00;;
44764;SDS011;30484;52.382;5.260;2024-02-21T01:45:20;29.25;;;4.22;;
44764;SDS011;30484;52.382;5.260;2024-02-21T01:47:49;38.53;;;4.70;;
44764;SDS011;30484;52.382;5.260;2024-02-21T01:50:18;29.25;;;4.78;;
44764;SDS011;30484;52.382;5.260;2024-02-21T01:52:48;30.40;;;4.65;;
44764;SDS011;30484;52.382;5.260;2024-02-21T01:55:19;34.15;;;4.68;;
44764;SDS011;30484;52.382;5.260;2024-02-21T01:57:47;31.27;;;4.88;;
44764;SDS011;30484;52.382;5.260;2024-02-21T02:00:16;37.95;;;4.45;;
44764;SDS011;30484;52.382;5.260;2024-02-21T02:02:46;32.20;;;4.95;;
44764;SDS011;30484;52.382;5.260;2024-02-21T02:05:14;26.20;;;4.65;;
44764;SDS011;30484;52.382;5.260;2024-02-21T02:07:45;29.55;;;3.92;;
44764;SDS011;30484;52.382;5.260;2024-02-21T02:10:15;37.10;;;4.88;;
44764;SDS011;30484;52.382;5.260;2024-02-21T02:12:43;38.25;;;4.82;;
44764;SDS011;30484;52.382;5.260;2024-02-21T02:15:12;35.80;;;4.90;;
44764;SDS011;30484;52.382;5.260;2024-02-21T02:17:40;39.75;;;4.43;;
44764;SDS011;30484;52.382;5.260;2024-02-21T02:20:10;39.08;;;4.72;;
44764;SDS011;30484;52.382;5.260;2024-02-21T02:22:40;44.60;;;5.28;;
44764;SDS011;30484;52.382;5.260;2024-02-21T02:25:12;27.27;;;4.43;;
44764;SDS011;30484;52.382;5.260;2024-02-21T02:27:41;36.00;;;4.72;;
44764;SDS011;30484;52.382;5.260;2024-02-21T02:30:12;29.80;;;4.97;;
44764;SDS011;30484;52.382;5.260;2024-02-21T02:32:43;31.00;;;5.20;;
44764;SDS011;30484;52.382;5.260;2024-02-21T02:35:13;46.17;;;5.78;;
44764;SDS011;30484;52.382;5.260;2024-02-21T02:37:47;34.67;;;4.57;;
44764;SDS011;30484;52.382;5.260;2024-02-21T02:40:18;41.42;;;4.78;;
44764;SDS011;30484;52.382;5.260;2024-02-21T02:42:47;38.28;;;4.72;;
44764;SDS011;30484;52.382;5.260;2024-02-21T02:45:16;35.20;;;5.13;;
44764;SDS011;30484;52.382;5.260;2024-02-21T02:47:44;38.58;;;5.30;;
44764;SDS011;30484;52.382;5.260;2024-02-21T02:50:13;38.08;;;5.28;;
44764;SDS011;30484;52.382;5.260;2024-02-21T02:52:43;30.58;;;4.55;;
44764;SDS011;30484;52.382;5.260;2024-02-21T02:55:11;43.47;;;4.97;;
44764;SDS011;30484;52.382;5.260;2024-02-21T02:57:41;34.35;;;4.80;;
44764;SDS011;30484;52.382;5.260;2024-02-21T03:00:10;38.30;;;4.72;;
44764;SDS011;30484;52.382;5.260;2024-02-21T03:02:41;37.15;;;5.50;;
44764;SDS011;30484;52.382;5.260;2024-02-21T03:05:13;40.20;;;5.60;;
44764;SDS011;30484;52.382;5.260;2024-02-21T03:07:43;37.90;;;5.07;;
44764;SDS011;30484;52.382;5.260;2024-02-21T03:10:12;38.72;;;5.20;;
44764;SDS011;30484;52.382;5.260;2024-02-21T03:12:45;41.03;;;4.97;;
44764;SDS011;30484;52.382;5.260;2024-02-21T03:15:13;26.25;;;4.95;;
44764;SDS011;30484;52.382;5.260;2024-02-21T03:17:42;30.38;;;5.28;;
44764;SDS011;30484;52.382;5.260;2024-02-21T03:20:14;35.42;;;4.78;;
44764;SDS011;30484;52.382;5.260;2024-02-21T03:22:43;30.10;;;6.28;;
44764;SDS011;30484;52.382;5.260;2024-02-21T03:25:11;32.15;;;4.55;;
44764;SDS011;30484;52.382;5.260;2024-02-21T03:27:41;37.55;;;5.05;;
44764;SDS011;30484;52.382;5.260;2024-02-21T03:30:11;45.28;;;5.30;;
44764;SDS011;30484;52.382;5.260;2024-02-21T03:32:40;41.45;;;5.80;;
44764;SDS011;30484;52.382;5.260;2024-02-21T03:35:09;23.85;;;3.80;;
44764;SDS011;30484;52.382;5.260;2024-02-21T03:37:38;36.03;;;5.80;;
44764;SDS011;30484;52.382;5.260;2024-02-21T03:40:07;26.50;;;4.60;;
44764;SDS011;30484;52.382;5.260;2024-02-21T03:42:37;47.38;;;5.78;;
44764;SDS011;30484;52.382;5.260;2024-02-21T03:45:06;29.85;;;4.60;;
44764;SDS011;30484;52.382;5.260;2024-02-21T03:47:37;37.78;;;5.18;;
44764;SDS011;30484;52.382;5.260;2024-02-21T03:50:06;38.83;;;5.00;;
44764;SDS011;30484;52.382;5.260;2024-02-21T03:52:35;36.03;;;4.85;;
44764;SDS011;30484;52.382;5.260;2024-02-21T03:55:04;39.47;;;5.35;;
44764;SDS011;30484;52.382;5.260;2024-02-21T03:57:35;38.78;;;4.70;;
44764;SDS011;30484;52.382;5.260;2024-02-21T04:00:04;27.35;;;4.25;;
44764;SDS011;30484;52.382;5.260;2024-02-21T04:02:39;39.63;;;5.70;;
44764;SDS011;30484;52.382;5.260;2024-02-21T04:05:07;32.45;;;5.53;;
44764;SDS011;30484;52.382;5.260;2024-02-21T04:07:38;34.53;;;5.35;;
44764;SDS011;30484;52.382;5.260;2024-02-21T04:10:07;41.85;;;5.18;;
44764;SDS011;30484;52.382;5.260;2024-02-21T04:12:36;35.00;;;5.30;;
44764;SDS011;30484;52.382;5.260;2024-02-21T04:15:05;39.75;;;5.20;;
44764;SDS011;30484;52.382;5.260;2024-02-21T04:17:34;41.17;;;5.38;;
44764;SDS011;30484;52.382;5.260;2024-02-21T04:20:06;39.20;;;4.70;;
44764;SDS011;30484;52.382;5.260;2024-02-21T04:22:42;30.77;;;4.97;;
44764;SDS011;30484;52.382;5.260;2024-02-21T04:25:11;34.92;;;5.18;;
44764;SDS011;30484;52.382;5.260;2024-02-21T04:27:40;28.05;;;4.50;;
44764;SDS011;30484;52.382;5.260;2024-02-21T04:30:09;32.22;;;5.03;;
44764;SDS011;30484;52.382;5.260;2024-02-21T04:32:38;36.53;;;5.13;;
44764;SDS011;30484;52.382;5.260;2024-02-21T04:35:09;32.05;;;5.40;;
44764;SDS011;30484;52.382;5.260;2024-02-21T04:37:37;42.13;;;6.35;;
44764;SDS011;30484;52.382;5.260;2024-02-21T04:40:06;39.30;;;5.78;;
44764;SDS011;30484;52.382;5.260;2024-02-21T04:42:36;32.40;;;6.65;;
44764;SDS011;30484;52.382;5.260;2024-02-21T04:45:05;36.72;;;6.05;;
44764;SDS011;30484;52.382;5.260;2024-02-21T04:47:35;33.47;;;6.47;;
44764;SDS011;30484;52.382;5.260;2024-02-21T04:50:04;37.53;;;6.28;;
44764;SDS011;30484;52.382;5.260;2024-02-21T04:52:35;31.73;;;5.38;;
44764;SDS011;30484;52.382;5.260;2024-02-21T04:55:04;33.00;;;6.60;;
44764;SDS011;30484;52.382;5.260;2024-02-21T04:57:33;28.73;;;5.40;;
44764;SDS011;30484;52.382;5.260;2024-02-21T05:00:02;30.95;;;5.03;;
44764;SDS011;30484;52.382;5.260;2024-02-21T05:02:32;32.78;;;5.78;;
44764;SDS011;30484;52.382;5.260;2024-02-21T05:05:01;33.20;;;6.07;;
44764;SDS011;30484;52.382;5.260;2024-02-21T05:07:29;24.83;;;5.70;;
44764;SDS011;30484;52.382;5.260;2024-02-21T05:09:59;31.70;;;6.43;;
44764;SDS011;30484;52.382;5.260;2024-02-21T05:12:28;30.95;;;6.40;;
44764;SDS011;30484;52.382;5.260;2024-02-21T05:14:57;25.25;;;5.82;;
44764;SDS011;30484;52.382;5.260;2024-02-21T05:17:26;26.63;;;6.43;;
44764;SDS011;30484;52.382;5.260;2024-02-21T05:19:54;29.80;;;6.53;;
44764;SDS011;30484;52.382;5.260;2024-02-21T05:22:23;31.80;;;6.28;;
44764;SDS011;30484;52.382;5.260;2024-02-21T05:24:52;29.30;;;6.63;;
44764;SDS011;30484;52.382;5.260;2024-02-21T05:27:22;32.72;;;7.32;;
44764;SDS011;30484;52.382;5.260;2024-02-21T05:29:50;22.08;;;6.38;;
44764;SDS011;30484;52.382;5.260;2024-02-21T05:32:19;25.65;;;7.30;;
44764;SDS011;30484;52.382;5.260;2024-02-21T05:34:48;33.25;;;8.20;;
44764;SDS011;30484;52.382;5.260;2024-02-21T05:37:17;25.52;;;7.95;;
44764;SDS011;30484;52.382;5.260;2024-02-21T05:39:46;23.80;;;9.80;;
44764;SDS011;30484;52.382;5.260;2024-02-21T05:42:14;36.22;;;10.60;;
44764;SDS011;30484;52.382;5.260;2024-02-21T05:44:44;26.73;;;11.30;;
44764;SDS011;30484;52.382;5.260;2024-02-21T05:47:13;37.63;;;11.75;;
44764;SDS011;30484;52.382;5.260;2024-02-21T05:49:42;30.88;;;12.73;;
44764;SDS011;30484;52.382;5.260;2024-02-21T05:52:10;26.85;;;12.38;;
44764;SDS011;30484;52.382;5.260;2024-02-21T05:54:39;27.08;;;12.02;;
44764;SDS011;30484;52.382;5.260;2024-02-21T05:57:07;31.88;;;12.93;;
44764;SDS011;30484;52.382;5.260;2024-02-21T05:59:38;40.10;;;13.15;;
44764;SDS011;30484;52.382;5.260;2024-02-21T06:02:09;32.50;;;13.70;;
44764;SDS011;30484;52.382;5.260;2024-02-21T06:04:38;26.15;;;13.20;;
44764;SDS011;30484;52.382;5.260;2024-02-21T06:07:07;29.25;;;13.13;;
44764;SDS011;30484;52.382;5.260;2024-02-21T06:09:35;28.67;;;13.27;;
44764;SDS011;30484;52.382;5.260;2024-02-21T06:12:04;26.10;;;11.88;;
44764;SDS011;30484;52.382;5.260;2024-02-21T06:14:33;24.65;;;12.88;;
44764;SDS011;30484;52.382;5.260;2024-02-21T06:17:02;26.25;;;12.40;;
44764;SDS011;30484;52.382;5.260;2024-02-21T06:19:32;25.20;;;12.63;;
44764;SDS011;30484;52.382;5.260;2024-02-21T06:22:00;25.63;;;13.05;;
44764;SDS011;30484;52.382;5.260;2024-02-21T06:24:34;32.90;;;13.10;;
44764;SDS011;30484;52.382;5.260;2024-02-21T06:27:03;31.92;;;13.32;;
44764;SDS011;30484;52.382;5.260;2024-02-21T06:29:36;31.42;;;14.27;;
44764;SDS011;30484;52.382;5.260;2024-02-21T06:32:05;27.83;;;13.43;;
44764;SDS011;30484;52.382;5.260;2024-02-21T06:34:35;26.17;;;13.60;;
44764;SDS011;30484;52.382;5.260;2024-02-21T06:37:04;28.90;;;13.75;;
44764;SDS011;30484;52.382;5.260;2024-02-21T06:39:34;26.02;;;12.95;;
44764;SDS011;30484;52.382;5.260;2024-02-21T06:42:04;29.67;;;13.43;;
44764;SDS011;30484;52.382;5.260;2024-02-21T06:44:32;32.97;;;13.85;;
44764;SDS011;30484;52.382;5.260;2024-02-21T06:47:07;28.73;;;14.10;;
44764;SDS011;30484;52.382;5.260;2024-02-21T06:49:37;27.88;;;13.68;;
44764;SDS011;30484;52.382;5.260;2024-02-21T06:52:06;30.27;;;13.55;;
44764;SDS011;30484;52.382;5.260;2024-02-21T06:54:34;28.70;;;14.20;;
44764;SDS011;30484;52.382;5.260;2024-02-21T06:57:06;29.50;;;14.70;;
44764;SDS011;30484;52.382;5.260;2024-02-21T06:59:34;31.35;;;16.00;;
44764;SDS011;30484;52.382;5.260;2024-02-21T07:02:03;29.85;;;16.00;;
44764;SDS011;30484;52.382;5.260;2024-02-21T07:04:32;34.53;;;15.73;;
44764;SDS011;30484;52.382;5.260;2024-02-21T07:07:02;29.60;;;15.93;;
44764;SDS011;30484;52.382;5.260;2024-02-21T07:09:31;35.00;;;15.98;;
44764;SDS011;30484;52.382;5.260;2024-02-21T07:12:00;33.10;;;15.90;;
44764;SDS011;30484;52.382;5.260;2024-02-21T07:14:31;34.05;;;15.00;;
44764;SDS011;30484;52.382;5.260;2024-02-21T07:17:00;32.85;;;15.52;;
44764;SDS011;30484;52.382;5.260;2024-02-21T07:19:29;30.05;;;15.93;;
44764;SDS011;30484;52.382;5.260;2024-02-21T07:21:58;37.92;;;15.90;;
44764;SDS011;30484;52.382;5.260;2024-02-21T07:24:28;27.88;;;15.45;;
44764;SDS011;30484;52.382;5.260;2024-02-21T07:26:58;34.55;;;15.75;;
44764;SDS011;30484;52.382;5.260;2024-02-21T07:29:31;37.75;;;14.73;;
44764;SDS011;30484;52.382;5.260;2024-02-21T07:31:59;31.00;;;15.60;;
44764;SDS011;30484;52.382;5.260;2024-02-21T07:34:28;34.53;;;15.10;;
44764;SDS011;30484;52.382;5.260;2024-02-21T07:36:58;30.67;;;15.77;;
44764;SDS011;30484;52.382;5.260;2024-02-21T07:39:28;27.10;;;14.52;;
44764;SDS011;30484;52.382;5.260;2024-02-21T07:41:56;33.80;;;14.68;;
44764;SDS011;30484;52.382;5.260;2024-02-21T07:44:25;28.08;;;15.40;;
44764;SDS011;30484;52.382;5.260;2024-02-21T07:46:54;31.20;;;15.13;;
44764;SDS011;30484;52.382;5.260;2024-02-21T07:49:23;32.72;;;14.95;;
44764;SDS011;30484;52.382;5.260;2024-02-21T07:51:52;33.97;;;14.48;;
44764;SDS011;30484;52.382;5.260;2024-02-21T07:54:20;33.28;;;14.73;;
44764;SDS011;30484;52.382;5.260;2024-02-21T07:56:50;32.38;;;14.40;;
44764;SDS011;30484;52.382;5.260;2024-02-21T07:59:19;36.53;;;13.15;;
44764;SDS011;30484;52.382;5.260;2024-02-21T08:01:47;30.00;;;14.05;;
44764;SDS011;30484;52.382;5.260;2024-02-21T08:04:15;34.63;;;14.85;;
44764;SDS011;30484;52.382;5.260;2024-02-21T08:06:44;29.52;;;14.90;;
44764;SDS011;30484;52.382;5.260;2024-02-21T08:09:15;36.28;;;15.50;;
44764;SDS011;30484;52.382;5.260;2024-02-21T08:11:43;41.20;;;16.98;;
44764;SDS011;30484;52.382;5.260;2024-02-21T08:14:13;36.75;;;15.40;;
44764;SDS011;30484;52.382;5.260;2024-02-21T08:16:46;31.23;;;15.47;;
44764;SDS011;30484;52.382;5.260;2024-02-21T08:19:15;35.08;;;15.20;;
44764;SDS011;30484;52.382;5.260;2024-02-21T08:21:44;35.88;;;14.88;;
44764;SDS011;30484;52.382;5.260;2024-02-21T08:24:14;36.00;;;14.30;;
44764;SDS011;30484;52.382;5.260;2024-02-21T08:26:43;37.40;;;14.73;;
44764;SDS011;30484;52.382;5.260;2024-02-21T08:29:12;35.22;;;14.10;;
44764;SDS011;30484;52.382;5.260;2024-02-21T08:31:42;37.38;;;13.50;;
44764;SDS011;30484;52.382;5.260;2024-02-21T08:34:10;30.17;;;13.13;;
44764;SDS011;30484;52.382;5.260;2024-02-21T08:36:40;33.17;;;13.68;;
44764;SDS011;30484;52.382;5.260;2024-02-21T08:39:08;27.38;;;13.20;;
44764;SDS011;30484;52.382;5.260;2024-02-21T08:41:37;27.00;;;12.25;;
44764;SDS011;30484;52.382;5.260;2024-02-21T08:44:23;27.03;;;13.27;;
44764;SDS011;30484;52.382;5.260;2024-02-21T08:46:54;35.83;;;14.75;;
44764;SDS011;30484;52.382;5.260;2024-02-21T08:49:23;24.17;;;13.40;;
44764;SDS011;30484;52.382;5.260;2024-02-21T08:52:00;28.30;;;13.35;;
44764;SDS011;30484;52.382;5.260;2024-02-21T08:54:30;33.65;;;14.90;;
44764;SDS011;30484;52.382;5.260;2024-02-21T08:56:59;31.38;;;13.77;;
44764;SDS011;30484;52.382;5.260;2024-02-21T08:59:29;28.95;;;13.63;;
44764;SDS011;30484;52.382;5.260;2024-02-21T09:01:57;29.20;;;14.15;;
44764;SDS011;30484;52.382;5.260;2024-02-21T09:04:26;29.65;;;15.27;;
44764;SDS011;30484;52.382;5.260;2024-02-21T09:06:55;35.92;;;15.60;;
44764;SDS011;30484;52.382;5.260;2024-02-21T09:09:23;28.98;;;15.48;;
44764;SDS011;30484;52.382;5.260;2024-02-21T09:11:55;28.10;;;15.32;;
44764;SDS011;30484;52.382;5.260;2024-02-21T09:14:24;35.10;;;16.55;;
44764;SDS011;30484;52.382;5.260;2024-02-21T09:16:54;34.42;;;16.10;;
44764;SDS011;30484;52.382;5.260;2024-02-21T09:19:22;29.48;;;15.43;;
44764;SDS011;30484;52.382;5.260;2024-02-21T09:21:51;30.25;;;14.77;;
44764;SDS011;30484;52.382;5.260;2024-02-21T09:24:20;32.72;;;15.88;;
44764;SDS011;30484;52.382;5.260;2024-02-21T09:26:48;31.20;;;15.43;;
44764;SDS011;30484;52.382;5.260;2024-02-21T09:29:17;28.60;;;15.27;;
44764;SDS011;30484;52.382;5.260;2024-02-21T09:31:51;32.47;;;16.88;;
44764;SDS011;30484;52.382;5.260;2024-02-21T09:34:21;30.63;;;16.63;;
44764;SDS011;30484;52.382;5.260;2024-02-21T09:36:50;33.92;;;16.98;;
44764;SDS011;30484;52.382;5.260;2024-02-21T09:39:18;36.60;;;18.98;;
44764;SDS011;30484;52.382;5.260;2024-02-21T09:41:47;36.38;;;18.55;;
44764;SDS011;30484;52.382;5.260;2024-02-21T09:44:28;32.33;;;18.10;;
44764;SDS011;30484;52.382;5.260;2024-02-21T09:47:04;37.15;;;18.85;;
44764;SDS011;30484;52.382;5.260;2024-02-21T09:49:39;33.42;;;18.27;;
44764;SDS011;30484;52.382;5.260;2024-02-21T09:52:10;37.80;;;18.52;;
44764;SDS011;30484;52.382;5.260;2024-02-21T09:54:42;30.80;;;17.88;;
44764;SDS011;30484;52.382;5.260;2024-02-21T09:57:11;36.05;;;17.98;;
44764;SDS011;30484;52.382;5.260;2024-02-21T09:59:40;37.28;;;17.52;;
44764;SDS011;30484;52.382;5.260;2024-02-21T10:02:09;32.08;;;17.00;;
44764;SDS011;30484;52.382;5.260;2024-02-21T10:04:40;31.85;;;15.95;;
44764;SDS011;30484;52.382;5.260;2024-02-21T10:07:09;32.17;;;16.23;;
44764;SDS011;30484;52.382;5.260;2024-02-21T10:09:38;29.63;;;15.52;;
44764;SDS011;30484;52.382;5.260;2024-02-21T10:12:09;27.30;;;14.85;;
44764;SDS011;30484;52.382;5.260;2024-02-21T10:14:40;28.45;;;14.90;;
44764;SDS011;30484;52.382;5.260;2024-02-21T10:17:08;33.35;;;15.02;;
44764;SDS011;30484;52.382;5.260;2024-02-21T10:19:46;32.05;;;14.15;;
44764;SDS011;30484;52.382;5.260;2024-02-21T10:22:17;28.13;;;13.73;;
44764;SDS011;30484;52.382;5.260;2024-02-21T10:24:47;26.00;;;13.70;;
44764;SDS011;30484;52.382;5.260;2024-02-21T10:27:15;25.50;;;12.70;;
44764;SDS011;30484;52.382;5.260;2024-02-21T10:29:48;24.27;;;12.32;;
44764;SDS011;30484;52.382;5.260;2024-02-21T10:32:17;22.45;;;10.77;;
44764;SDS011;30484;52.382;5.260;2024-02-21T10:34:47;26.15;;;11.23;;
44764;SDS011;30484;52.382;5.260;2024-02-21T10:37:18;19.15;;;10.48;;
44764;SDS011;30484;52.382;5.260;2024-02-21T10:39:49;24.77;;;10.20;;
44764;SDS011;30484;52.382;5.260;2024-02-21T10:42:18;18.27;;;9.23;;
44764;SDS011;30484;52.382;5.260;2024-02-21T10:44:50;24.30;;;9.88;;
44764;SDS011;30484;52.382;5.260;2024-02-21T10:47:19;21.48;;;9.48;;
44764;SDS011;30484;52.382;5.260;2024-02-21T10:49:55;21.30;;;8.77;;
44764;SDS011;30484;52.382;5.260;2024-02-21T10:52:32;19.27;;;8.90;;
44764;SDS011;30484;52.382;5.260;2024-02-21T10:55:16;20.23;;;8.77;;
44764;SDS011;30484;52.382;5.260;2024-02-21T10:57:54;19.65;;;8.90;;
44764;SDS011;30484;52.382;5.260;2024-02-21T11:00:25;17.27;;;9.00;;
44764;SDS011;30484;52.382;5.260;2024-02-21T11:02:56;19.30;;;8.85;;
44764;SDS011;30484;52.382;5.260;2024-02-21T11:05:27;19.10;;;8.55;;
44764;SDS011;30484;52.382;5.260;2024-02-21T11:07:56;15.93;;;7.97;;
44764;SDS011;30484;52.382;5.260;2024-02-21T11:10:26;14.90;;;8.07;;
44764;SDS011;30484;52.382;5.260;2024-02-21T11:13:04;18.50;;;7.50;;
44764;SDS011;30484;52.382;5.260;2024-02-21T11:15:35;14.68;;;7.47;;
44764;SDS011;30484;52.382;5.260;2024-02-21T11:18:04;16.00;;;6.93;;
44764;SDS011;30484;52.382;5.260;2024-02-21T11:20:34;12.95;;;7.30;;
44764;SDS011;30484;52.382;5.260;2024-02-21T11:23:04;12.88;;;6.93;;
44764;SDS011;30484;52.382;5.260;2024-02-21T11:25:33;16.75;;;7.28;;
44764;SDS011;30484;52.382;5.260;2024-02-21T11:28:01;13.00;;;6.25;;
44764;SDS011;30484;52.382;5.260;2024-02-21T11:30:31;13.50;;;6.95;;
44764;SDS011;30484;52.382;5.260;2024-02-21T11:33:00;11.80;;;6.35;;
44764;SDS011;30484;52.382;5.260;2024-02-21T11:35:34;13.93;;;6.38;;
44764;SDS011;30484;52.382;5.260;2024-02-21T11:38:08;11.70;;;6.20;;
44764;SDS011;30484;52.382;5.260;2024-02-21T11:40:41;12.27;;;6.38;;
44764;SDS011;30484;52.382;5.260;2024-02-21T11:43:12;12.20;;;6.38;;
44764;SDS011;30484;52.382;5.260;2024-02-21T11:45:41;12.45;;;6.38;;
44764;SDS011;30484;52.382;5.260;2024-02-21T11:48:09;11.05;;;6.22;;
44764;SDS011;30484;52.382;5.260;2024-02-21T11:50:40;11.52;;;6.45;;
44764;SDS011;30484;52.382;5.260;2024-02-21T11:53:08;13.80;;;6.90;;
44764;SDS011;30484;52.382;5.260;2024-02-21T11:55:37;12.43;;;7.40;;
44764;SDS011;30484;52.382;5.260;2024-02-21T11:58:06;15.98;;;7.60;;
44764;SDS011;30484;52.382;5.260;2024-02-21T12:00:34;16.17;;;8.18;;
44764;SDS011;30484;52.382;5.260;2024-02-21T12:03:03;16.38;;;9.13;;
44764;SDS011;30484;52.382;5.260;2024-02-21T12:05:33;12.52;;;8.02;;
44764;SDS011;30484;52.382;5.260;2024-02-21T12:08:03;16.75;;;8.25;;
44764;SDS011;30484;52.382;5.260;2024-02-21T12:10:34;16.17;;;8.48;;
44764;SDS011;30484;52.382;5.260;2024-02-21T12:13:07;13.13;;;7.30;;
44764;SDS011;30484;52.382;5.260;2024-02-21T12:15:36;12.48;;;7.65;;
44764;SDS011;30484;52.382;5.260;2024-02-21T12:18:06;19.13;;;7.38;;
44764;SDS011;30484;52.382;5.260;2024-02-21T12:20:35;14.98;;;7.05;;
44764;SDS011;30484;52.382;5.260;2024-02-21T12:23:08;15.45;;;6.93;;
44764;SDS011;30484;52.382;5.260;2024-02-21T12:25:38;13.00;;;6.72;;
44764;SDS011;30484;52.382;5.260;2024-02-21T12:28:07;11.88;;;6.05;;
44764;SDS011;30484;52.382;5.260;2024-02-21T12:30:35;10.25;;;6.85;;
44764;SDS011;30484;52.382;5.260;2024-02-21T12:33:06;11.38;;;6.22;;
44764;SDS011;30484;52.382;5.260;2024-02-21T12:35:35;16.85;;;6.75;;
44764;SDS011;30484;52.382;5.260;2024-02-21T12:38:05;10.68;;;6.18;;
44764;SDS011;30484;52.382;5.260;2024-02-21T12:40:34;10.93;;;5.97;;
44764;SDS011;30484;52.382;5.260;2024-02-21T12:43:03;11.70;;;6.43;;
44764;SDS011;30484;52.382;5.260;2024-02-21T12:45:31;17.58;;;7.35;;
44764;SDS011;30484;52.382;5.260;2024-02-21T12:48:00;14.25;;;7.22;;
44764;SDS011;30484;52.382;5.260;2024-02-21T12:50:30;11.50;;;6.43;;
44764;SDS011;30484;52.382;5.260;2024-02-21T12:52:59;11.43;;;7.22;;
44764;SDS011;30484;52.382;5.260;2024-02-21T12:55:33;13.75;;;6.90;;
44764;SDS011;30484;52.382;5.260;2024-02-21T12:58:03;10.88;;;6.43;;
44764;SDS011;30484;52.382;5.260;2024-02-21T13:00:33;12.25;;;7.50;;
44764;SDS011;30484;52.382;5.260;2024-02-21T13:03:02;12.32;;;7.15;;
44764;SDS011;30484;52.382;5.260;2024-02-21T13:05:31;10.18;;;6.45;;
44764;SDS011;30484;52.382;5.260;2024-02-21T13:08:00;18.60;;;6.78;;
44764;SDS011;30484;52.382;5.260;2024-02-21T13:10:29;11.02;;;7.03;;
44764;SDS011;30484;52.382;5.260;2024-02-21T13:13:01;12.95;;;5.90;;
44764;SDS011;30484;52.382;5.260;2024-02-21T13:15:30;14.38;;;6.80;;
44764;SDS011;30484;52.382;5.260;2024-02-21T13:17:58;11.38;;;6.05;;
44764;SDS011;30484;52.382;5.260;2024-02-21T13:20:27;12.38;;;6.22;;
44764;SDS011;30484;52.382;5.260;2024-02-21T13:22:56;11.30;;;6.10;;
44764;SDS011;30484;52.382;5.260;2024-02-21T13:25:25;12.73;;;6.70;;
44764;SDS011;30484;52.382;5.260;2024-02-21T13:27:53;11.50;;;6.50;;
44764;SDS011;30484;52.382;5.260;2024-02-21T13:30:23;10.38;;;6.13;;
44764;SDS011;30484;52.382;5.260;2024-02-21T13:32:52;12.45;;;6.85;;
44764;SDS011;30484;52.382;5.260;2024-02-21T13:35:22;12.30;;;6.35;;
44764;SDS011;30484;52.382;5.260;2024-02-21T13:37:50;14.40;;;6.05;;
44764;SDS011;30484;52.382;5.260;2024-02-21T13:40:19;12.93;;;6.35;;
44764;SDS011;30484;52.382;5.260;2024-02-21T13:42:47;11.18;;;6.15;;
44764;SDS011;30484;52.382;5.260;2024-02-21T13:45:17;14.25;;;6.38;;
44764;SDS011;30484;52.382;5.260;2024-02-21T13:47:47;11.32;;;6.32;;
44764;SDS011;30484;52.382;5.260;2024-02-21T13:50:16;12.65;;;6.80;;
44764;SDS011;30484;52.382;5.260;2024-02-21T13:52:46;12.38;;;5.90;;
44764;SDS011;30484;52.382;5.260;2024-02-21T13:55:15;12.13;;;6.28;;
44764;SDS011;30484;52.382;5.260;2024-02-21T13:57:44;14.18;;;6.30;;
44764;SDS011;30484;52.382;5.260;2024-02-21T14:00:13;11.73;;;5.97;;
44764;SDS011;30484;52.382;5.260;2024-02-21T14:02:42;13.38;;;5.65;;
44764;SDS011;30484;52.382;5.260;2024-02-21T14:05:13;11.60;;;5.90;;
44764;SDS011;30484;52.382;5.260;2024-02-21T14:07:41;11.68;;;5.18;;
44764;SDS011;30484;52.382;5.260;2024-02-21T14:10:10;13.55;;;5.65;;
44764;SDS011;30484;52.382;5.260;2024-02-21T14:12:39;10.10;;;5.20;;
44764;SDS011;30484;52.382;5.260;2024-02-21T14:15:07;12.77;;;5.65;;
44764;SDS011;30484;52.382;5.260;2024-02-21T14:17:37;14.10;;;5.57;;
44764;SDS011;30484;52.382;5.260;2024-02-21T14:20:06;14.70;;;5.80;;
44764;SDS011;30484;52.382;5.260;2024-02-21T14:22:41;15.25;;;5.35;;
44764;SDS011;30484;52.382;5.260;2024-02-21T14:25:09;15.32;;;5.55;;
44764;SDS011;30484;52.382;5.260;2024-02-21T14:27:38;15.05;;;5.63;;
44764;SDS011;30484;52.382;5.260;2024-02-21T14:30:07;11.80;;;5.50;;
44764;SDS011;30484;52.382;5.260;2024-02-21T14:32:37;14.60;;;5.80;;
44764;SDS011;30484;52.382;5.260;2024-02-21T14:35:09;15.13;;;5.05;;
44764;SDS011;30484;52.382;5.260;2024-02-21T14:37:37;16.13;;;5.13;;
44764;SDS011;30484;52.382;5.260;2024-02-21T14:40:10;16.67;;;5.20;;
44764;SDS011;30484;52.382;5.260;2024-02-21T14:42:40;14.48;;;5.60;;
44764;SDS011;30484;52.382;5.260;2024-02-21T14:45:09;13.75;;;5.78;;